x

Diamond Shoals (41025) Wave Buoy

8:50 - Fri 26th Aug 2016 All times are EDT. -4 hours from GMT.

  • Sig Wave height 2.6ft
  • Swell Direction
  • Peak Period 8s
  • Average Period 6s
  • Wind
    4mph, 7mph gusts
  • Sea Temp 84°f
  • Luft Temp 82°f
  • Sea Pressure 1019.8mb
  • Diamond Shoals
  • Diamond Shoals

More Historic Weather Station data

Upgrade to MSW Pro to gain access to the past 30 days of data for over 8000 Wavebouys and Weather Stations around the globe.

Join Pro

Comparision Forecast

View Surf forecast
   
Fr 08/26 8:50 2.5ft 8s 6s 4 7 mph 1019.8mb 84f 82f
7:50 2.5ft 9s 6s 4 7 mph 1019.8mb 84f 82f
6:50 3ft 8s 6s 4 7 mph 1019.4mb 84f 81f
5:50 3ft 8s 6s 2 7 mph 1018.9mb 84f 80f
4:50 3.5ft 8s 7s 2 4 mph 1018.7mb 84f 80f
3:50 3ft 8s 7s 4 7 mph 1018.8mb 83f 80f
2:50 3.5ft 9s 7s 2 4 mph 1018.8mb 83f 80f
1:50 3.5ft 9s 6s 2 4 mph 1018.6mb 84f 80f
12:50 3.5ft 9s 6s 4 7 mph 1018.9mb 84f 81f
Do 08/25 11:50 3.5ft 8s 6s 7 9 mph 1019.1mb 84f 81f
10:50 3.5ft 9s 6s 4 7 mph 1019.5mb 84f 81f
9:50 3ft 9s 6s 4 9 mph 1019.6mb 84f 81f
8:50 3.5ft 9s 6s 4 7 mph 1019.9mb 84f 81f
7:50 3.5ft 9s 6s 4 7 mph 1019.5mb 84f 81f
6:50 3.5ft 9s 6s 4 7 mph 1019.1mb 84f 82f
5:50 3ft 9s 6s 7 11 mph 1019mb 85f 81f
4:50 3.5ft 9s 6s 7 11 mph 1018.9mb 85f 81f
3:50 3ft 9s 6s 7 9 mph 1019.5mb 85f 81f
2:50 3ft 9s 6s 7 9 mph 1020.3mb 85f 81f
1:50 3ft 10s 6s 7 9 mph 1021mb 85f 81f
12:50 3ft 10s 6s 7 9 mph 1021.5mb 85f 81f
11:50 2.5ft 10s 6s 7 11 mph 1021.7mb 84f 81f
10:50 2.5ft 10s 5s 7 9 mph 1021.9mb 84f 81f
9:50 2.5ft 10s 5s 9 11 mph 1021.8mb 84f 81f
8:50 2.5ft 10s 5s 11 13 mph 1021.4mb 84f 81f
7:50 2.5ft 10s 5s 11 13 mph 1021.1mb 84f 81f
6:50 2.5ft 10s 6s 7 11 mph 1021mb 84f 80f
5:50 2.5ft 10s 5s 7 9 mph 1020.7mb 84f 80f
4:50 3ft 11s 5s 7 9 mph 1020.4mb 84f 80f
3:50 3ft 11s 5s 9 13 mph 1020.5mb 84f 80f
2:50 3ft 11s 5s 11 13 mph 1020.8mb 84f 81f
1:50 3.5ft 11s 5s 13 16 mph 1021.3mb 84f 81f
12:50 3.5ft 11s 5s 13 18 mph 1021.7mb 84f 81f
Mi 08/24 10:50 3.5ft 11s 5s 16 20 mph 1022.6mb 84f 81f
9:50 3.5ft 11s 5s 16 18 mph 1022.9mb 84f 81f
8:50 3.5ft 11s 5s 13 18 mph 1022.4mb 84f 81f
7:50 3ft 11s 5s 13 16 mph 1022.2mb 84f 81f
6:50 3ft 7s 5s 9 13 mph 1022.3mb 85f 81f
5:50 3ft 7s 5s 11 13 mph 1022.3mb 85f 81f
4:50 3ft 5s 5s 11 13 mph 1022.5mb 85f 82f
3:50 3ft 5s 5s 11 13 mph 1022.6mb 85f 82f
1:50 3ft 7s 5s 13 16 mph 1023.3mb 85f 82f
12:50 3ft 8s  -  18 20 mph 1023.5mb 85f 81f
11:50 3ft 6s 5s 11 16 mph 1023.9mb 85f 82f
10:50 3.5ft 6s 5s 11 13 mph 1024mb 84f 82f
9:50 3ft 8s 5s 11 13 mph 1023.8mb 84f 82f
8:50 3.5ft 5s 5s 9 11 mph 1023.7mb 84f 81f
7:50 3ft 8s 5s 20 22 mph 1023.3mb 84f 79f
6:50 2.5ft 8s 5s 16 20 mph 1023.1mb 84f 79f
5:50 2.5ft 6s 5s 16 18 mph 1023.1mb 84f 79f
4:50 3ft 8s 5s 13 18 mph 1023.1mb 84f 78f
3:50 3ft 8s 5s 13 18 mph 1023.1mb 84f 78f
2:50 3ft 8s 5s 11 16 mph 1023.5mb 84f 78f
1:50 3ft 8s 5s 13 16 mph 1023.5mb 84f 78f
12:50 3ft 6s 5s 13 18 mph 1024mb 84f 78f
Di 08/23 11:50 3ft 6s 5s 13 16 mph 1024.4mb 84f 79f
10:50 3.5ft 6s 5s 11 16 mph 1024.5mb 84f 79f
9:50 3.5ft 6s 5s 13 16 mph 1024.6mb 85f 79f
8:50 3.5ft 7s 5s 16 20 mph 1024.4mb 85f 79f
7:50 4ft 8s 5s 16 20 mph 1024.1mb 85f 79f
6:50 4.5ft 6s 5s 20 27 mph 1023.6mb 85f 80f
5:50 4.5ft 8s 5s 22 25 mph 1023.5mb 85f 80f
4:50 4ft 6s 5s 22 27 mph 1023.7mb 85f 80f
3:50 4.5ft 8s 5s 20 22 mph 1024mb 85f 80f
2:50 4.5ft 8s 5s 18 22 mph 1024.5mb 85f 81f
1:50 4.5ft 8s 5s 18 22 mph 1024.8mb 85f 81f
12:50 4.5ft 8s 5s 18 22 mph 1024.9mb 85f 81f
11:50 3.5ft 8s 6s 20 25 mph 1025.1mb 85f 81f
10:50 3.5ft 7s 6s 18 20 mph 1025.1mb 85f 81f
9:50 3.5ft 8s 6s 18 20 mph 1024.7mb 85f 81f
8:50 3ft 8s 6s 16 20 mph 1024.1mb 85f 81f
7:50 3ft 8s 6s 11 16 mph 1023.8mb 85f 81f
6:50 3.5ft 8s 6s 9 13 mph 1023.3mb 85f 81f
5:50 3ft 7s 6s 11 13 mph 1022.8mb 85f 81f
4:50 3ft 8s 6s 11 13 mph 1022.4mb 85f 81f
3:50 3ft 6s 5s 13 18 mph 1022.2mb 85f 81f
2:50 3ft 7s 5s 16 20 mph 1021.9mb 85f 82f
1:50 3ft 6s 5s 13 20 mph 1021.9mb 85f 82f
12:50 3ft 7s 5s 11 13 mph 1021.8mb 85f 81f
Mo 08/22 11:50 3.5ft 6s 5s 11 13 mph 1021.7mb 85f 81f
10:50 3ft 7s 5s 11 16 mph 1021.5mb 85f 81f
9:50 3.5ft 7s 5s 11 16 mph 1021.2mb 85f 81f
8:50 3.5ft 6s 5s 11 13 mph 1020.5mb 85f 81f
7:50 3.5ft 7s 5s 11 16 mph 1019.9mb 85f 81f
6:50 3.5ft 6s 5s 11 16 mph 1019.4mb 85f 81f
5:50 3.5ft 7s 5s 13 16 mph 1019.2mb 85f 81f
4:50 3.5ft 6s 5s 16 18 mph 1018.6mb 85f 81f
3:50 3.5ft 6s 5s 16 18 mph 1018.2mb 85f 81f
2:50 3.5ft 6s 5s 16 20 mph 1018.4mb 85f 81f